createdAt,value
2023-03-10T00:01:30.919Z,7.30
2023-03-10T00:04:00.036Z,7.18
2023-03-10T00:06:33.432Z,8.75
2023-03-10T00:09:00.962Z,8.07
2023-03-10T00:11:28.022Z,7.13
2023-03-10T00:13:55.014Z,7.43
2023-03-10T00:16:26.366Z,8.13
2023-03-10T00:18:54.552Z,7.35
2023-03-10T00:21:30.084Z,8.40
2023-03-10T00:23:57.592Z,8.38
2023-03-10T00:26:28.627Z,7.00
2023-03-10T00:28:56.673Z,7.50
2023-03-10T00:31:27.274Z,6.80
2023-03-10T00:33:58.130Z,7.00
2023-03-10T00:36:29.697Z,8.35
2023-03-10T00:38:57.903Z,6.60
2023-03-10T00:41:33.631Z,7.13
2023-03-10T00:44:01.367Z,6.90
2023-03-10T00:46:30.072Z,7.55
2023-03-10T00:48:57.060Z,7.15
2023-03-10T00:51:24.464Z,7.38
2023-03-10T00:53:51.771Z,6.05
2023-03-10T00:56:22.467Z,7.90
2023-03-10T00:59:00.792Z,6.05
2023-03-10T01:01:36.924Z,6.20
2023-03-10T01:04:14.309Z,7.00
2023-03-10T01:06:44.330Z,7.28
2023-03-10T01:09:11.429Z,7.07
2023-03-10T01:11:39.104Z,7.32
2023-03-10T01:14:09.024Z,6.68
2023-03-10T01:16:36.670Z,6.38
2023-03-10T01:19:03.878Z,6.20
2023-03-10T01:21:35.456Z,7.07
2023-03-10T01:24:04.411Z,6.57
2023-03-10T01:26:32.359Z,6.80
2023-03-10T01:28:59.993Z,7.05
2023-03-10T01:31:27.338Z,6.47
2023-03-10T01:33:55.215Z,7.15
2023-03-10T01:36:26.654Z,6.60
2023-03-10T01:38:55.759Z,6.22
2023-03-10T01:41:23.436Z,5.85
2023-03-10T01:43:57.312Z,6.07
2023-03-10T01:46:46.984Z,5.70
2023-03-10T01:49:44.733Z,5.78
2023-03-10T01:52:18.816Z,6.80
2023-03-10T01:54:55.836Z,5.65
2023-03-10T01:57:30.525Z,6.00
2023-03-10T01:59:58.243Z,5.53
2023-03-10T02:02:27.105Z,6.32
2023-03-10T02:04:55.352Z,6.57
2023-03-10T02:07:29.241Z,6.03
2023-03-10T02:09:56.853Z,6.30
2023-03-10T02:12:24.165Z,7.45
2023-03-10T02:14:53.336Z,6.75
2023-03-10T02:17:23.574Z,6.60
2023-03-10T02:20:13.089Z,6.80
2023-03-10T02:22:40.803Z,6.68
2023-03-10T02:25:23.996Z,6.95
2023-03-10T02:27:53.024Z,6.53
2023-03-10T02:30:30.080Z,6.38
2023-03-10T02:33:03.262Z,5.82
2023-03-10T02:35:30.284Z,5.30
2023-03-10T02:38:02.949Z,6.28
2023-03-10T02:40:40.478Z,6.00
2023-03-10T02:43:18.641Z,6.60
2023-03-10T02:45:49.382Z,6.10
2023-03-10T02:48:28.458Z,7.40
2023-03-10T02:50:58.246Z,7.38
2023-03-10T02:53:28.705Z,6.60
2023-03-10T02:55:56.243Z,6.60
2023-03-10T02:58:27.435Z,6.82
2023-03-10T03:00:55.867Z,6.80
2023-03-10T03:03:23.629Z,6.35
2023-03-10T03:05:52.321Z,7.28
2023-03-10T03:08:20.325Z,6.13
2023-03-10T03:10:48.638Z,6.80
2023-03-10T03:13:15.790Z,6.80
2023-03-10T03:15:43.412Z,7.07
2023-03-10T03:18:11.237Z,7.43
2023-03-10T03:20:41.053Z,7.43
2023-03-10T03:23:09.373Z,7.45
2023-03-10T03:25:39.527Z,7.88
2023-03-10T03:28:10.360Z,7.38
2023-03-10T03:30:38.494Z,6.18
2023-03-10T03:33:07.888Z,7.75
2023-03-10T03:35:37.872Z,7.15
2023-03-10T03:38:06.850Z,7.45
2023-03-10T03:40:36.288Z,7.40
2023-03-10T03:43:05.555Z,6.65
2023-03-10T03:45:33.997Z,7.95
2023-03-10T03:48:01.948Z,7.20
2023-03-10T03:50:31.903Z,6.57
2023-03-10T03:53:05.838Z,6.82
2023-03-10T03:55:34.174Z,6.03
2023-03-10T03:58:01.397Z,7.63
2023-03-10T04:00:28.659Z,6.53
2023-03-10T04:03:02.364Z,5.43
2023-03-10T04:05:30.760Z,6.53
2023-03-10T04:07:58.259Z,5.97
2023-03-10T04:10:29.156Z,6.43
2023-03-10T04:12:57.227Z,7.35
2023-03-10T04:15:25.966Z,6.90
2023-03-10T04:17:53.118Z,6.32
2023-03-10T04:20:20.780Z,6.80
2023-03-10T04:22:50.993Z,5.72
2023-03-10T04:25:21.168Z,6.38
2023-03-10T04:27:48.697Z,5.90
2023-03-10T04:30:16.900Z,5.90
2023-03-10T04:32:49.311Z,5.68
2023-03-10T04:35:18.159Z,6.47
2023-03-10T04:37:45.856Z,6.00
2023-03-10T04:40:14.918Z,6.13
2023-03-10T04:42:43.588Z,5.18
2023-03-10T04:45:13.004Z,5.30
2023-03-10T04:47:42.011Z,5.70
2023-03-10T04:50:11.639Z,5.70
2023-03-10T04:52:39.328Z,5.78
2023-03-10T04:55:07.769Z,5.05
2023-03-10T04:57:34.673Z,5.35
2023-03-10T05:00:07.690Z,5.07
2023-03-10T05:02:35.936Z,4.32
2023-03-10T05:05:04.978Z,4.82
2023-03-10T05:07:32.330Z,5.60
2023-03-10T05:09:59.388Z,5.50
2023-03-10T05:12:27.982Z,5.82
2023-03-10T05:14:55.682Z,4.95
2023-03-10T05:17:23.045Z,6.20
2023-03-10T05:19:50.010Z,5.10
2023-03-10T05:22:17.823Z,5.38
2023-03-10T05:24:44.808Z,5.47
2023-03-10T05:27:13.052Z,6.43
2023-03-10T05:29:43.275Z,5.93
2023-03-10T05:32:17.068Z,5.82
2023-03-10T05:34:46.719Z,5.28
2023-03-10T05:37:13.685Z,5.00
2023-03-10T05:39:40.907Z,4.05
2023-03-10T05:42:12.523Z,4.95
2023-03-10T05:44:41.487Z,6.43
2023-03-10T05:47:09.126Z,5.43
2023-03-10T05:49:38.608Z,5.05
2023-03-10T05:52:07.110Z,5.00
2023-03-10T05:54:34.026Z,4.72
2023-03-10T05:57:01.309Z,5.07
2023-03-10T05:59:29.690Z,4.80
2023-03-10T06:01:56.702Z,4.95
2023-03-10T06:04:23.667Z,6.32
2023-03-10T06:06:50.771Z,5.57
2023-03-10T06:09:17.685Z,5.70
2023-03-10T06:11:44.629Z,6.43
2023-03-10T06:14:11.507Z,6.85
2023-03-10T06:16:38.539Z,6.72
2023-03-10T06:19:05.797Z,7.07
2023-03-10T06:21:32.751Z,5.85
2023-03-10T06:24:00.574Z,6.65
2023-03-10T06:26:27.530Z,6.68
2023-03-10T06:28:54.658Z,7.05
2023-03-10T06:31:24.876Z,6.38
2023-03-10T06:33:52.252Z,6.55
2023-03-10T06:36:20.657Z,6.68
2023-03-10T06:38:48.809Z,6.28
2023-03-10T06:41:16.755Z,7.00
2023-03-10T06:43:44.295Z,6.45
2023-03-10T06:46:13.159Z,7.28
2023-03-10T06:48:41.997Z,7.55
2023-03-10T06:51:13.455Z,6.22
2023-03-10T06:53:40.552Z,6.10
2023-03-10T06:56:15.890Z,7.03
2023-03-10T06:58:43.814Z,7.97
2023-03-10T07:01:28.940Z,6.93
2023-03-10T07:03:57.757Z,8.10
2023-03-10T07:06:25.768Z,7.97
2023-03-10T07:08:54.359Z,6.93
2023-03-10T07:11:23.029Z,7.32
2023-03-10T07:13:50.855Z,7.38
2023-03-10T07:16:18.497Z,7.20
2023-03-10T07:18:45.973Z,6.95
2023-03-10T07:21:17.845Z,6.38
2023-03-10T07:23:45.274Z,8.52
2023-03-10T07:26:16.014Z,7.32
2023-03-10T07:28:43.371Z,7.50
2023-03-10T07:31:13.853Z,7.75
2023-03-10T07:33:41.203Z,7.10
2023-03-10T07:36:12.775Z,7.07
2023-03-10T07:38:40.720Z,6.80
2023-03-10T07:41:16.975Z,7.85
2023-03-10T07:43:47.754Z,6.85
2023-03-10T07:46:16.043Z,7.50
2023-03-10T07:48:44.310Z,7.70
2023-03-10T07:51:12.692Z,7.38
2023-03-10T07:53:40.370Z,7.30
2023-03-10T07:56:10.323Z,5.97
2023-03-10T07:58:38.040Z,6.57
2023-03-10T08:01:07.638Z,7.40
2023-03-10T08:03:36.376Z,7.50
2023-03-10T08:06:05.887Z,7.32
2023-03-10T08:08:33.985Z,6.75
2023-03-10T08:11:10.586Z,7.13
2023-03-10T08:13:39.219Z,7.38
2023-03-10T08:16:08.258Z,6.82
2023-03-10T08:18:35.869Z,6.55
2023-03-10T08:21:07.072Z,6.75
2023-03-10T08:23:35.630Z,6.80
2023-03-10T08:26:10.522Z,6.88
2023-03-10T08:28:39.041Z,4.60
2023-03-10T08:31:18.949Z,7.38
2023-03-10T08:33:49.227Z,6.05
2023-03-10T08:36:20.881Z,7.28
2023-03-10T08:38:50.446Z,6.47
2023-03-10T08:41:25.893Z,5.00
2023-03-10T08:43:55.908Z,5.10
2023-03-10T08:46:26.140Z,5.80
2023-03-10T08:48:54.796Z,6.50
2023-03-10T08:51:22.514Z,5.25
2023-03-10T08:53:51.319Z,5.10
2023-03-10T08:56:21.799Z,5.15
2023-03-10T08:58:49.157Z,5.38
2023-03-10T09:01:17.817Z,4.78
2023-03-10T09:03:46.639Z,4.15
2023-03-10T09:06:15.486Z,4.38
2023-03-10T09:08:43.271Z,3.97
2023-03-10T09:11:18.711Z,3.80
2023-03-10T09:13:45.983Z,4.20
2023-03-10T09:16:13.778Z,3.95
2023-03-10T09:18:41.438Z,4.18
2023-03-10T09:21:10.662Z,4.15
2023-03-10T09:23:38.845Z,4.22
2023-03-10T09:26:06.604Z,4.32
2023-03-10T09:28:34.270Z,3.75
2023-03-10T09:31:03.971Z,4.32
2023-03-10T09:33:32.513Z,3.20
2023-03-10T09:36:08.040Z,4.82
2023-03-10T09:41:19.217Z,3.53
2023-03-10T09:44:30.842Z,3.65
2023-03-10T09:47:11.103Z,4.35
2023-03-10T09:50:11.968Z,3.58
2023-03-10T09:53:12.993Z,5.03
2023-03-10T09:55:47.840Z,4.60
2023-03-10T10:01:18.568Z,4.07
2023-03-10T10:03:52.976Z,4.00
2023-03-10T10:06:42.348Z,3.90
2023-03-10T10:09:46.560Z,4.30
2023-03-10T10:12:23.493Z,3.72
2023-03-10T10:15:14.294Z,3.72
2023-03-10T10:18:05.529Z,3.80
2023-03-10T10:20:49.896Z,4.13
2023-03-10T10:23:25.047Z,3.60
2023-03-10T10:25:52.105Z,3.10
2023-03-10T10:28:42.463Z,4.00
2023-03-10T10:31:20.543Z,3.72
2023-03-10T10:34:02.817Z,3.80
2023-03-10T10:36:51.015Z,3.88
2023-03-10T10:39:43.676Z,3.80
2023-03-10T10:42:25.564Z,3.55
2023-03-10T10:45:05.693Z,3.25
2023-03-10T10:47:36.744Z,4.70
2023-03-10T10:50:25.147Z,3.30
2023-03-10T10:53:15.827Z,4.00
2023-03-10T10:55:46.348Z,3.60
2023-03-10T10:58:38.495Z,4.15
2023-03-10T11:01:16.717Z,3.13
2023-03-10T11:03:48.924Z,3.65
2023-03-10T11:06:18.679Z,3.75
2023-03-10T11:08:51.311Z,4.00
2023-03-10T11:11:50.598Z,3.83
2023-03-10T11:14:39.682Z,3.13
2023-03-10T11:17:33.549Z,3.63
2023-03-10T11:20:25.031Z,3.22
2023-03-10T11:23:13.157Z,3.58
2023-03-10T11:25:53.277Z,3.38
2023-03-10T11:28:48.068Z,2.75
2023-03-10T11:32:02.078Z,3.63
2023-03-10T11:34:32.876Z,2.58
2023-03-10T11:37:25.053Z,3.13
2023-03-10T11:40:19.729Z,3.05
2023-03-10T11:43:11.454Z,2.83
2023-03-10T11:45:53.647Z,2.83
2023-03-10T11:49:07.738Z,3.67
2023-03-10T11:51:53.110Z,3.45
2023-03-10T11:54:42.371Z,2.97
2023-03-10T11:57:21.140Z,2.95
2023-03-10T12:00:07.840Z,2.40
2023-03-10T12:03:16.242Z,2.83
2023-03-10T12:05:50.269Z,2.20
2023-03-10T12:08:20.249Z,2.33
2023-03-10T12:10:49.268Z,3.00
2023-03-10T12:13:27.077Z,2.45
2023-03-10T12:15:59.841Z,3.28
2023-03-10T12:18:27.883Z,4.78
2023-03-10T12:21:22.910Z,3.72
2023-03-10T12:23:56.696Z,4.22
2023-03-10T12:26:38.958Z,3.85
2023-03-10T12:29:24.217Z,4.60
2023-03-10T12:31:55.522Z,4.03
2023-03-10T12:34:28.106Z,4.50
2023-03-10T12:37:12.602Z,4.70
2023-03-10T12:39:44.787Z,4.82
2023-03-10T12:42:31.661Z,4.22
2023-03-10T12:45:24.535Z,4.28
2023-03-10T12:48:05.442Z,3.90
2023-03-10T12:50:58.361Z,3.75
2023-03-10T12:54:15.654Z,3.65
2023-03-10T12:56:44.304Z,3.13
2023-03-10T12:59:33.610Z,3.60
2023-03-10T13:02:02.429Z,3.80
2023-03-10T13:04:30.618Z,3.05
2023-03-10T13:07:03.800Z,3.85
2023-03-10T13:09:42.600Z,3.83
2023-03-10T13:12:22.017Z,3.55
2023-03-10T13:14:55.649Z,4.18
2023-03-10T13:17:32.282Z,4.78
2023-03-10T13:20:05.824Z,4.88
2023-03-10T13:22:34.085Z,4.82
2023-03-10T13:25:09.741Z,4.85
2023-03-10T13:27:37.129Z,4.90
2023-03-10T13:30:23.049Z,4.45
2023-03-10T13:33:00.251Z,3.85
2023-03-10T13:35:34.166Z,4.20
2023-03-10T13:38:26.958Z,3.65
2023-03-10T13:40:59.204Z,3.78
2023-03-10T13:43:38.153Z,3.88
2023-03-10T13:46:17.654Z,4.80
2023-03-10T13:48:47.719Z,3.60
2023-03-10T13:51:32.425Z,4.50
2023-03-10T13:54:20.836Z,4.40
2023-03-10T13:56:53.186Z,4.65
2023-03-10T13:59:31.533Z,4.07
2023-03-10T14:02:01.333Z,3.65
2023-03-10T14:04:50.698Z,4.30
2023-03-10T14:07:30.874Z,4.15
2023-03-10T14:10:08.350Z,4.32
2023-03-10T14:12:41.005Z,3.65
2023-03-10T14:15:29.157Z,3.72
2023-03-10T14:18:10.909Z,3.97
2023-03-10T14:20:44.644Z,3.80
2023-03-10T14:23:37.225Z,3.78
2023-03-10T14:26:15.779Z,4.70
2023-03-10T14:28:43.216Z,4.28
2023-03-10T14:31:25.054Z,4.18
2023-03-10T14:33:52.461Z,4.18
2023-03-10T14:36:20.310Z,4.28
2023-03-10T14:38:47.968Z,4.22
2023-03-10T14:41:16.757Z,4.30
2023-03-10T14:43:43.924Z,3.25
2023-03-10T14:46:13.165Z,4.13
2023-03-10T14:48:42.198Z,4.18
2023-03-10T14:51:32.579Z,4.85
2023-03-10T14:54:02.760Z,5.78
2023-03-10T14:56:32.802Z,6.05
2023-03-10T14:59:02.696Z,5.85
2023-03-10T15:01:31.312Z,4.45
2023-03-10T15:03:58.790Z,6.57
2023-03-10T15:06:26.515Z,4.95
2023-03-10T15:08:54.130Z,5.15
2023-03-10T15:11:36.079Z,5.85
2023-03-10T15:14:19.176Z,5.25
2023-03-10T15:16:46.453Z,4.78
2023-03-10T15:19:26.157Z,5.97
2023-03-10T15:21:54.683Z,5.57
2023-03-10T15:24:22.024Z,6.10
2023-03-10T15:26:49.402Z,4.90
2023-03-10T15:29:20.137Z,5.88
2023-03-10T15:31:47.452Z,4.65
2023-03-10T15:34:14.525Z,5.47
2023-03-10T15:36:41.907Z,5.95
2023-03-10T15:39:11.067Z,5.28
2023-03-10T15:41:41.240Z,6.38
2023-03-10T15:44:08.490Z,6.63
2023-03-10T15:46:35.810Z,5.95
2023-03-10T15:49:04.279Z,5.05
2023-03-10T15:51:31.607Z,3.30
2023-03-10T15:53:59.346Z,3.60
2023-03-10T15:56:26.610Z,2.75
2023-03-10T15:58:54.067Z,2.33
2023-03-10T16:01:21.364Z,1.73
2023-03-10T16:03:51.806Z,1.85
2023-03-10T16:06:18.951Z,1.50
2023-03-10T16:08:47.461Z,2.40
2023-03-10T16:11:20.195Z,2.17
2023-03-10T16:13:49.665Z,2.03
2023-03-10T16:16:19.666Z,1.98
2023-03-10T16:18:47.704Z,2.33
2023-03-10T16:21:17.890Z,1.85
2023-03-10T16:23:45.507Z,2.05
2023-03-10T16:26:16.133Z,3.05
2023-03-10T16:28:50.493Z,2.88
2023-03-10T16:31:19.997Z,2.40
2023-03-10T16:33:49.528Z,2.25
2023-03-10T16:36:20.000Z,3.45
2023-03-10T16:38:47.285Z,2.15
2023-03-10T16:41:14.285Z,3.25
2023-03-10T16:43:41.399Z,3.22
2023-03-10T16:46:17.383Z,3.70
2023-03-10T16:48:47.698Z,3.45
2023-03-10T16:51:47.970Z,3.08
2023-03-10T16:54:20.345Z,3.70
2023-03-10T16:56:51.439Z,2.97
2023-03-10T16:59:24.908Z,4.00
2023-03-10T17:01:52.264Z,3.80
2023-03-10T17:04:20.155Z,3.53
2023-03-10T17:06:48.137Z,3.28
2023-03-10T17:09:16.817Z,4.00
2023-03-10T17:11:54.811Z,4.20
2023-03-10T17:14:23.233Z,4.55
2023-03-10T17:16:50.911Z,4.30
2023-03-10T17:19:21.029Z,4.03
2023-03-10T17:21:51.377Z,4.18
2023-03-10T17:24:19.932Z,4.15
2023-03-10T17:26:47.671Z,3.72
2023-03-10T17:29:15.214Z,3.75
2023-03-10T17:31:44.122Z,4.30
2023-03-10T17:34:13.688Z,5.10
2023-03-10T17:36:40.924Z,4.32
2023-03-10T17:39:08.098Z,3.42
2023-03-10T17:41:36.355Z,3.60
2023-03-10T17:44:06.448Z,3.65
2023-03-10T17:46:34.105Z,4.80
2023-03-10T17:49:01.258Z,3.40
2023-03-10T17:51:30.867Z,3.67
2023-03-10T17:54:01.163Z,3.78
2023-03-10T17:56:28.872Z,3.90
2023-03-10T17:58:57.664Z,2.60
2023-03-10T18:01:28.091Z,2.53
2023-03-10T18:04:00.319Z,1.83
2023-03-10T18:06:31.256Z,1.90
2023-03-10T18:09:00.493Z,2.00
2023-03-10T18:11:28.911Z,1.50
2023-03-10T18:13:56.900Z,1.50
2023-03-10T18:16:28.993Z,0.95
2023-03-10T18:18:58.014Z,0.80
2023-03-10T18:21:26.679Z,1.08
2023-03-10T18:23:54.841Z,0.88
2023-03-10T18:26:27.451Z,0.77
2023-03-10T18:28:54.625Z,0.77
2023-03-10T18:31:29.530Z,0.80
2023-03-10T18:33:56.937Z,0.95
2023-03-10T18:36:24.815Z,0.73
2023-03-10T18:38:53.209Z,1.00
2023-03-10T18:41:24.129Z,1.00
2023-03-10T18:43:52.205Z,0.68
2023-03-10T18:46:20.125Z,0.60
2023-03-10T18:48:47.291Z,1.00
2023-03-10T18:51:14.915Z,0.88
2023-03-10T18:53:41.832Z,0.95
2023-03-10T18:56:10.100Z,0.88
2023-03-10T18:58:37.223Z,1.15
2023-03-10T19:01:12.664Z,1.10
2023-03-10T19:03:40.454Z,1.10
2023-03-10T19:06:08.419Z,1.20
2023-03-10T19:08:37.736Z,0.90
2023-03-10T19:11:06.726Z,1.23
2023-03-10T19:13:34.016Z,1.63
2023-03-10T19:16:09.358Z,1.50
2023-03-10T19:18:36.890Z,1.58
2023-03-10T19:21:04.649Z,1.13
2023-03-10T19:23:34.003Z,1.48
2023-03-10T19:26:01.357Z,1.20
2023-03-10T19:28:28.715Z,1.27
2023-03-10T19:30:55.767Z,1.13
2023-03-10T19:33:23.499Z,1.38
2023-03-10T19:35:51.479Z,1.38
2023-03-10T19:38:18.593Z,1.02
2023-03-10T19:40:47.022Z,1.40
2023-03-10T19:43:13.987Z,0.90
2023-03-10T19:45:40.860Z,1.75
2023-03-10T19:48:07.792Z,1.10
2023-03-10T19:50:34.723Z,1.35
2023-03-10T19:53:01.717Z,1.40
2023-03-10T19:55:29.586Z,1.27
2023-03-10T19:57:56.685Z,1.20
2023-03-10T20:00:31.071Z,1.30
2023-03-10T20:02:58.751Z,2.17
2023-03-10T20:05:26.874Z,1.30
2023-03-10T20:07:53.978Z,1.20
2023-03-10T20:10:20.948Z,1.40
2023-03-10T20:12:47.895Z,1.00
2023-03-10T20:15:15.569Z,1.10
2023-03-10T20:17:42.491Z,1.20
2023-03-10T20:20:10.945Z,1.45
2023-03-10T20:22:45.283Z,1.10
2023-03-10T20:25:17.130Z,1.10
2023-03-10T20:27:45.870Z,1.30
2023-03-10T20:30:30.471Z,1.17
2023-03-10T20:32:59.788Z,1.10
2023-03-10T20:35:30.068Z,1.15
2023-03-10T20:37:57.797Z,0.90
2023-03-10T20:40:25.131Z,1.15
2023-03-10T20:42:57.305Z,1.05
2023-03-10T20:45:24.254Z,0.80
2023-03-10T20:47:53.158Z,0.90
2023-03-10T20:50:20.756Z,0.90
2023-03-10T20:52:47.840Z,0.80
2023-03-10T20:55:20.515Z,0.90
2023-03-10T20:57:49.058Z,1.10
2023-03-10T21:00:19.312Z,1.17
2023-03-10T21:02:48.486Z,0.50
2023-03-10T21:05:15.980Z,0.60
2023-03-10T21:07:42.975Z,0.60
2023-03-10T21:10:13.262Z,0.40
2023-03-10T21:12:42.950Z,0.38
2023-03-10T21:15:13.440Z,0.40
2023-03-10T21:17:40.416Z,0.63
2023-03-10T21:20:09.028Z,0.60
2023-03-10T21:22:38.323Z,0.85
2023-03-10T21:25:08.984Z,0.77
2023-03-10T21:27:36.288Z,0.70
2023-03-10T21:30:11.705Z,1.05
2023-03-10T21:32:38.690Z,0.82
2023-03-10T21:35:06.613Z,0.68
2023-03-10T21:37:33.802Z,0.85
2023-03-10T21:40:01.573Z,0.65
2023-03-10T21:42:28.516Z,0.93
2023-03-10T21:44:56.025Z,0.80
2023-03-10T21:47:23.042Z,1.00
2023-03-10T21:49:50.074Z,0.85
2023-03-10T21:52:17.002Z,0.90
2023-03-10T21:54:44.079Z,1.00
2023-03-10T21:57:11.066Z,0.90
2023-03-10T21:59:38.078Z,1.15
2023-03-10T22:02:05.410Z,1.08
2023-03-10T22:04:32.907Z,1.13
2023-03-10T22:07:00.765Z,1.30
2023-03-10T22:09:28.431Z,0.90
2023-03-10T22:11:55.425Z,1.48
2023-03-10T22:14:24.440Z,1.10
2023-03-10T22:16:51.544Z,0.93
2023-03-10T22:19:18.907Z,1.10
2023-03-10T22:21:45.790Z,1.33
2023-03-10T22:24:13.964Z,1.00
2023-03-10T22:26:40.989Z,2.33
2023-03-10T22:29:07.962Z,1.20
2023-03-10T22:31:35.016Z,1.13
2023-03-10T22:34:01.991Z,1.25
2023-03-10T22:36:28.864Z,0.75
2023-03-10T22:38:55.764Z,1.30
2023-03-10T22:41:22.772Z,1.13
2023-03-10T22:43:51.883Z,0.95
2023-03-10T22:46:18.883Z,0.98
2023-03-10T22:48:45.965Z,0.88
2023-03-10T22:51:17.375Z,0.98
2023-03-10T22:53:46.872Z,0.95
2023-03-10T22:56:13.771Z,1.40
2023-03-10T22:58:40.757Z,0.68
2023-03-10T23:01:08.064Z,0.77
2023-03-10T23:03:35.480Z,0.80
2023-03-10T23:06:06.634Z,0.70
2023-03-10T23:08:37.321Z,1.10
2023-03-10T23:11:12.799Z,1.00
2023-03-10T23:13:40.560Z,1.35
2023-03-10T23:16:08.244Z,1.15
2023-03-10T23:18:35.307Z,0.90
2023-03-10T23:21:02.835Z,0.82
2023-03-10T23:23:29.844Z,1.05
2023-03-10T23:25:56.835Z,1.15
2023-03-10T23:28:23.989Z,1.00
2023-03-10T23:30:51.319Z,1.05
2023-03-10T23:33:22.099Z,0.50
2023-03-10T23:35:53.672Z,0.70
2023-03-10T23:38:24.774Z,1.05
2023-03-10T23:40:53.239Z,1.02
2023-03-10T23:43:20.504Z,0.82
2023-03-10T23:45:47.557Z,1.30
2023-03-10T23:48:17.200Z,1.15
2023-03-10T23:50:47.227Z,0.73
2023-03-10T23:53:17.028Z,0.60
2023-03-10T23:55:46.368Z,1.10
2023-03-10T23:58:15.731Z,1.48
